createdAt,value
2022-12-03T00:01:26.501Z,2.74
2022-12-03T00:04:14.420Z,2.72
2022-12-03T00:07:02.483Z,2.70
2022-12-03T00:09:50.423Z,2.76
2022-12-03T00:12:40.064Z,2.42
2022-12-03T00:15:28.067Z,2.72
2022-12-03T00:18:16.138Z,2.63
2022-12-03T00:21:04.076Z,2.56
2022-12-03T00:23:52.069Z,2.77
2022-12-03T00:26:39.989Z,2.84
2022-12-03T00:29:29.843Z,2.68
2022-12-03T00:32:17.816Z,2.62
2022-12-03T00:35:06.381Z,2.89
2022-12-03T00:37:54.668Z,2.89
2022-12-03T00:40:42.631Z,2.82
2022-12-03T00:43:30.552Z,2.78
2022-12-03T00:46:21.568Z,2.91
2022-12-03T00:49:09.956Z,2.82
2022-12-03T00:51:57.934Z,2.94
2022-12-03T00:54:46.050Z,2.98
2022-12-03T00:57:33.981Z,2.89
2022-12-03T01:00:25.234Z,2.93
2022-12-03T01:03:14.597Z,2.90
2022-12-03T01:06:02.675Z,2.99
2022-12-03T01:08:50.653Z,2.91
2022-12-03T01:11:39.033Z,2.90
2022-12-03T01:14:27.209Z,3.04
2022-12-03T01:17:15.195Z,2.96
2022-12-03T01:20:04.758Z,3.04
2022-12-03T01:22:52.715Z,3.06
2022-12-03T01:25:40.645Z,3.13
2022-12-03T01:28:29.305Z,3.12
2022-12-03T01:31:34.781Z,3.15
2022-12-03T01:34:22.946Z,3.09
2022-12-03T01:37:12.213Z,3.00
2022-12-03T01:40:00.122Z,3.14
2022-12-03T01:42:48.109Z,3.05
2022-12-03T01:45:36.106Z,3.10
2022-12-03T01:48:24.063Z,3.12
2022-12-03T01:51:13.546Z,2.94
2022-12-03T01:54:04.101Z,3.01
2022-12-03T01:56:52.209Z,3.18
2022-12-03T01:59:40.385Z,3.14
2022-12-03T02:02:30.832Z,3.04
2022-12-03T02:05:21.420Z,2.98
2022-12-03T02:08:31.241Z,2.97
2022-12-03T02:11:25.722Z,3.00
2022-12-03T02:14:18.361Z,3.01
2022-12-03T02:17:06.563Z,3.08
2022-12-03T02:19:55.484Z,2.98
2022-12-03T02:22:49.434Z,3.08
2022-12-03T02:25:39.108Z,2.32
2022-12-03T02:28:27.189Z,2.89
2022-12-03T02:31:15.248Z,2.93
2022-12-03T02:34:06.517Z,2.85
2022-12-03T02:36:54.465Z,2.83
2022-12-03T02:39:47.849Z,2.70
2022-12-03T02:42:38.391Z,2.61
2022-12-03T02:45:29.666Z,2.63
2022-12-03T02:48:20.628Z,2.61
2022-12-03T02:51:11.174Z,2.63
2022-12-03T02:54:00.324Z,2.52
2022-12-03T02:56:48.284Z,2.52
2022-12-03T02:59:37.727Z,2.56
2022-12-03T03:02:28.293Z,2.62
2022-12-03T03:05:19.218Z,2.63
2022-12-03T03:08:09.356Z,2.40
2022-12-03T03:11:00.406Z,2.61
2022-12-03T03:13:48.579Z,2.67
2022-12-03T03:16:37.979Z,2.50
2022-12-03T03:19:27.488Z,2.59
2022-12-03T03:22:15.498Z,2.62
2022-12-03T03:25:04.378Z,2.82
2022-12-03T03:27:52.303Z,2.70
2022-12-03T03:30:41.970Z,2.70
2022-12-03T03:33:31.572Z,2.64
2022-12-03T03:36:20.673Z,2.63
2022-12-03T03:39:08.890Z,2.69
2022-12-03T03:41:56.908Z,2.61
2022-12-03T03:44:45.096Z,2.80
2022-12-03T03:47:33.399Z,2.77
2022-12-03T03:50:23.287Z,2.82
2022-12-03T03:53:12.688Z,2.88
2022-12-03T03:56:00.612Z,2.95
2022-12-03T03:58:50.252Z,2.96
2022-12-03T04:01:38.795Z,2.93
2022-12-03T04:04:28.280Z,2.89
2022-12-03T04:07:17.838Z,2.99
2022-12-03T04:10:27.227Z,2.87
2022-12-03T04:13:14.440Z,3.03
2022-12-03T04:16:02.395Z,2.99
2022-12-03T04:18:50.811Z,3.00
2022-12-03T04:21:56.367Z,2.95
2022-12-03T04:24:46.520Z,3.05
2022-12-03T04:27:52.020Z,3.05
2022-12-03T04:30:40.035Z,3.01
2022-12-03T04:33:45.491Z,2.93
2022-12-03T04:36:33.533Z,3.04
2022-12-03T04:39:22.045Z,3.03
2022-12-03T04:42:11.354Z,3.05
2022-12-03T04:44:59.283Z,2.95
2022-12-03T04:47:47.202Z,2.92
2022-12-03T04:50:35.180Z,2.89
2022-12-03T04:53:23.176Z,2.98
2022-12-03T04:56:11.121Z,2.97
2022-12-03T04:59:00.370Z,2.99
2022-12-03T05:01:48.814Z,3.01
2022-12-03T05:04:36.941Z,2.98
2022-12-03T05:07:24.944Z,2.88
2022-12-03T05:10:13.656Z,2.90
2022-12-03T05:13:01.537Z,2.91
2022-12-03T05:15:50.782Z,2.84
2022-12-03T05:18:38.736Z,2.87
2022-12-03T05:21:26.634Z,2.87
2022-12-03T05:24:14.534Z,2.85
2022-12-03T05:27:02.396Z,2.77
2022-12-03T05:29:50.372Z,2.81
2022-12-03T05:32:39.651Z,2.82
2022-12-03T05:35:29.227Z,2.77
2022-12-03T05:38:17.138Z,2.76
2022-12-03T05:41:25.772Z,2.77
2022-12-03T05:44:17.380Z,2.79
2022-12-03T05:47:08.127Z,2.79
2022-12-03T05:49:57.324Z,2.75
2022-12-03T05:52:45.343Z,2.69
2022-12-03T05:55:33.271Z,2.68
2022-12-03T05:58:21.146Z,2.65
2022-12-03T06:01:09.062Z,2.52
2022-12-03T06:03:56.998Z,2.58
2022-12-03T06:06:46.306Z,2.47
2022-12-03T06:09:34.177Z,2.34
2022-12-03T06:12:22.086Z,2.30
2022-12-03T06:15:12.282Z,2.32
2022-12-03T06:18:00.169Z,2.34
2022-12-03T06:20:48.048Z,2.24
2022-12-03T06:23:37.342Z,2.26
2022-12-03T06:26:25.220Z,2.20
2022-12-03T06:29:13.098Z,1.98
2022-12-03T06:32:01.095Z,2.02
2022-12-03T06:34:48.991Z,1.98
2022-12-03T06:37:36.925Z,2.01
2022-12-03T06:40:27.011Z,1.96
2022-12-03T06:43:15.023Z,1.82
2022-12-03T06:46:02.972Z,1.78
2022-12-03T06:48:50.970Z,1.75
2022-12-03T06:51:39.018Z,1.86
2022-12-03T06:54:26.959Z,1.72
2022-12-03T06:57:16.279Z,1.60
2022-12-03T07:00:06.320Z,1.34
2022-12-03T07:02:54.342Z,1.30
2022-12-03T07:05:21.947Z,1.17
2022-12-03T07:07:52.177Z,1.20
2022-12-03T07:10:20.278Z,1.12
2022-12-03T07:12:49.233Z,1.13
2022-12-03T07:15:17.137Z,1.16
2022-12-03T07:17:44.802Z,1.15
2022-12-03T07:20:13.089Z,1.18
2022-12-03T07:22:40.699Z,1.25
2022-12-03T07:25:09.508Z,1.29
2022-12-03T07:27:37.122Z,1.36
2022-12-03T07:30:07.848Z,1.50
2022-12-03T07:32:35.485Z,1.65
2022-12-03T07:35:03.114Z,1.78
2022-12-03T07:37:30.749Z,1.88
2022-12-03T07:39:58.384Z,1.86
2022-12-03T07:42:26.305Z,1.94
2022-12-03T07:44:54.197Z,1.97
2022-12-03T07:47:23.350Z,2.06
2022-12-03T07:49:50.975Z,2.10
2022-12-03T07:52:18.593Z,2.01
2022-12-03T07:54:46.253Z,2.09
2022-12-03T07:57:13.958Z,2.00
2022-12-03T07:59:41.598Z,2.12
2022-12-03T08:02:10.224Z,2.06
2022-12-03T08:04:39.169Z,2.15
2022-12-03T08:07:06.757Z,2.32
2022-12-03T08:09:34.363Z,2.44
2022-12-03T08:12:06.830Z,2.57
2022-12-03T08:14:34.567Z,2.63
2022-12-03T08:17:02.346Z,2.77
2022-12-03T08:19:29.965Z,2.95
2022-12-03T08:22:01.640Z,3.04
2022-12-03T08:24:31.348Z,3.15
2022-12-03T08:26:58.957Z,3.23
2022-12-03T08:29:26.612Z,3.45
2022-12-03T08:31:56.928Z,3.53
2022-12-03T08:34:27.279Z,3.23
2022-12-03T08:36:59.818Z,3.22
2022-12-03T08:39:33.136Z,3.36
2022-12-03T08:42:27.611Z,3.51
2022-12-03T08:44:56.155Z,3.62
2022-12-03T08:47:25.336Z,3.71
2022-12-03T08:49:57.913Z,3.55
2022-12-03T08:52:32.980Z,3.69
2022-12-03T08:55:03.749Z,3.69
2022-12-03T08:57:33.590Z,3.78
2022-12-03T09:00:04.670Z,3.91
2022-12-03T09:02:34.099Z,4.01
2022-12-03T09:05:14.170Z,4.01
2022-12-03T09:07:43.186Z,4.15
2022-12-03T09:10:11.331Z,4.17
2022-12-03T09:12:39.133Z,4.17
2022-12-03T09:15:08.063Z,4.25
2022-12-03T09:17:35.714Z,4.47
2022-12-03T09:20:03.570Z,4.54
2022-12-03T09:22:31.291Z,4.59
2022-12-03T09:25:00.464Z,4.81
2022-12-03T09:27:28.187Z,4.73
2022-12-03T09:29:55.838Z,4.73
2022-12-03T09:32:23.605Z,4.41
2022-12-03T09:34:52.068Z,4.26
2022-12-03T09:37:20.402Z,4.15
2022-12-03T09:39:48.015Z,4.19
2022-12-03T09:42:17.181Z,4.04
2022-12-03T09:44:44.993Z,4.27
2022-12-03T09:47:13.152Z,4.30
2022-12-03T09:49:41.468Z,4.41
2022-12-03T09:52:11.479Z,4.61
2022-12-03T09:54:44.182Z,4.56
2022-12-03T09:57:14.738Z,4.47
2022-12-03T09:59:43.883Z,4.58
2022-12-03T10:02:20.502Z,4.95
2022-12-03T10:04:48.521Z,5.04
2022-12-03T10:07:16.492Z,4.98
2022-12-03T10:09:44.303Z,4.88
2022-12-03T10:12:14.216Z,5.03
2022-12-03T10:14:44.195Z,5.11
2022-12-03T10:17:12.687Z,5.26
2022-12-03T10:19:42.576Z,5.21
2022-12-03T10:22:10.266Z,5.24
2022-12-03T10:24:39.145Z,5.26
2022-12-03T10:27:22.166Z,5.12
2022-12-03T10:29:57.763Z,5.22
2022-12-03T10:32:27.350Z,5.28
2022-12-03T10:35:09.661Z,5.14
2022-12-03T10:37:37.674Z,5.34
2022-12-03T10:40:09.174Z,5.12
2022-12-03T10:42:38.823Z,5.08
2022-12-03T10:45:17.812Z,4.92
2022-12-03T10:48:03.691Z,4.99
2022-12-03T10:50:32.240Z,5.00
2022-12-03T10:53:00.196Z,4.97
2022-12-03T10:55:29.863Z,4.71
2022-12-03T10:57:58.406Z,4.89
2022-12-03T11:00:27.678Z,4.93
2022-12-03T11:02:57.244Z,4.94
2022-12-03T11:05:28.128Z,5.02
2022-12-03T11:07:56.541Z,4.91
2022-12-03T11:10:24.934Z,4.83
2022-12-03T11:13:30.746Z,4.77
2022-12-03T11:16:00.433Z,4.86
2022-12-03T11:19:00.149Z,4.84
2022-12-03T11:21:28.097Z,4.64
2022-12-03T11:24:21.527Z,4.63
2022-12-03T11:27:20.537Z,4.45
2022-12-03T11:30:01.983Z,4.67
2022-12-03T11:33:06.279Z,4.74
2022-12-03T11:36:31.795Z,4.83
2022-12-03T11:39:09.558Z,4.83
2022-12-03T11:41:37.156Z,4.97
2022-12-03T11:44:21.813Z,4.87
2022-12-03T11:46:49.922Z,4.83
2022-12-03T11:49:33.606Z,5.17
2022-12-03T11:52:03.503Z,4.99
2022-12-03T11:54:36.121Z,5.17
2022-12-03T11:57:04.169Z,5.05
2022-12-03T11:59:31.845Z,5.07
2022-12-03T12:01:59.494Z,4.73
2022-12-03T12:04:30.980Z,4.83
2022-12-03T12:06:59.053Z,4.79
2022-12-03T12:09:50.483Z,4.71
2022-12-03T12:12:28.801Z,4.65
2022-12-03T12:14:56.710Z,4.86
2022-12-03T12:17:36.062Z,4.85
2022-12-03T12:20:23.425Z,5.02
2022-12-03T12:22:51.705Z,5.00
2022-12-03T12:25:47.271Z,4.88
2022-12-03T12:28:17.134Z,4.95
2022-12-03T12:30:44.835Z,5.12
2022-12-03T12:33:18.884Z,4.99
2022-12-03T12:35:46.527Z,5.21
2022-12-03T12:38:18.054Z,5.30
2022-12-03T12:40:49.357Z,5.25
2022-12-03T12:43:24.341Z,5.26
2022-12-03T12:45:54.571Z,5.28
2022-12-03T12:48:26.168Z,4.99
2022-12-03T12:51:02.206Z,4.85
2022-12-03T12:53:32.240Z,5.05
2022-12-03T12:56:08.092Z,5.22
2022-12-03T12:58:36.753Z,5.28
2022-12-03T13:01:07.372Z,5.16
2022-12-03T13:03:40.209Z,5.10
2022-12-03T13:06:15.835Z,4.97
2022-12-03T13:08:45.949Z,5.14
2022-12-03T13:11:34.277Z,5.05
2022-12-03T13:14:06.570Z,5.15
2022-12-03T13:16:35.462Z,5.20
2022-12-03T13:19:03.658Z,5.00
2022-12-03T13:21:38.700Z,5.14
2022-12-03T13:24:27.829Z,4.85
2022-12-03T13:26:57.534Z,4.95
2022-12-03T13:29:27.148Z,5.26
2022-12-03T13:31:57.363Z,5.41
2022-12-03T13:34:27.472Z,5.24
2022-12-03T13:36:58.591Z,5.45
2022-12-03T13:39:31.633Z,5.32
2022-12-03T13:42:36.477Z,5.24
2022-12-03T13:45:29.242Z,5.28
2022-12-03T13:48:00.043Z,4.85
2022-12-03T13:50:34.974Z,5.09
2022-12-03T13:53:03.445Z,4.91
2022-12-03T13:55:32.771Z,4.98
2022-12-03T13:58:01.741Z,4.99
2022-12-03T14:00:29.386Z,4.97
2022-12-03T14:02:57.019Z,4.82
2022-12-03T14:05:24.637Z,4.85
2022-12-03T14:07:52.439Z,4.87
2022-12-03T14:10:20.081Z,4.85
2022-12-03T14:12:47.713Z,4.75
2022-12-03T14:15:16.779Z,4.87
2022-12-03T14:17:44.365Z,4.84
2022-12-03T14:20:12.990Z,4.82
2022-12-03T14:22:40.596Z,4.82
2022-12-03T14:25:09.405Z,4.64
2022-12-03T14:27:37.317Z,4.19
2022-12-03T14:30:06.333Z,4.61
2022-12-03T14:32:35.377Z,4.64
2022-12-03T14:35:09.501Z,4.61
2022-12-03T14:37:37.817Z,4.69
2022-12-03T14:40:08.727Z,4.59
2022-12-03T14:42:37.233Z,4.44
2022-12-03T14:45:06.523Z,4.45
2022-12-03T14:47:35.630Z,4.48
2022-12-03T14:50:05.041Z,4.14
2022-12-03T14:52:32.719Z,4.41
2022-12-03T14:55:00.441Z,4.42
2022-12-03T14:57:28.096Z,4.38
2022-12-03T14:59:55.921Z,4.43
2022-12-03T15:02:23.918Z,4.44
2022-12-03T15:04:52.915Z,4.26
2022-12-03T15:07:20.558Z,4.23
2022-12-03T15:09:48.199Z,4.39
2022-12-03T15:12:15.828Z,4.28
2022-12-03T15:14:43.519Z,4.41
2022-12-03T15:17:11.221Z,4.41
2022-12-03T15:19:38.952Z,4.38
2022-12-03T15:22:08.066Z,4.46
2022-12-03T15:24:35.693Z,4.42
2022-12-03T15:27:03.405Z,4.45
2022-12-03T15:29:46.102Z,4.29
2022-12-03T15:32:14.239Z,4.27
2022-12-03T15:34:41.959Z,3.97
2022-12-03T15:37:10.910Z,4.18
2022-12-03T15:39:41.305Z,4.25
2022-12-03T15:42:12.644Z,4.02
2022-12-03T15:44:40.253Z,4.05
2022-12-03T15:47:07.833Z,4.15
2022-12-03T15:49:35.448Z,4.18
2022-12-03T15:52:03.170Z,4.04
2022-12-03T15:54:32.440Z,4.13
2022-12-03T15:57:00.182Z,4.05
2022-12-03T15:59:27.758Z,4.07
2022-12-03T16:01:55.435Z,4.11
2022-12-03T16:04:23.172Z,4.18
2022-12-03T16:06:50.847Z,4.22
2022-12-03T16:09:23.751Z,4.23
2022-12-03T16:11:55.823Z,4.25
2022-12-03T16:14:23.443Z,4.16
2022-12-03T16:16:51.049Z,4.23
2022-12-03T16:19:18.675Z,4.25
2022-12-03T16:21:46.261Z,4.26
2022-12-03T16:24:14.022Z,4.25
2022-12-03T16:26:41.679Z,4.31
2022-12-03T16:29:10.658Z,4.10
2022-12-03T16:31:38.376Z,4.04
2022-12-03T16:34:06.083Z,4.09
2022-12-03T16:36:33.805Z,4.04
2022-12-03T16:39:03.565Z,4.15
2022-12-03T16:41:31.280Z,4.04
2022-12-03T16:44:01.637Z,4.03
2022-12-03T16:46:31.072Z,3.91
2022-12-03T16:48:59.398Z,4.06
2022-12-03T16:51:30.258Z,4.23
2022-12-03T16:53:57.879Z,4.23
2022-12-03T16:56:25.476Z,4.24
2022-12-03T16:58:53.079Z,4.23
2022-12-03T17:01:23.300Z,4.12
2022-12-03T17:03:52.424Z,4.21
2022-12-03T17:06:20.238Z,4.20
2022-12-03T17:08:49.943Z,4.24
2022-12-03T17:11:18.377Z,4.23
2022-12-03T17:13:46.051Z,4.24
2022-12-03T17:16:13.743Z,4.22
2022-12-03T17:18:41.432Z,4.26
2022-12-03T17:21:10.367Z,4.25
2022-12-03T17:23:38.003Z,4.08
2022-12-03T17:26:06.037Z,4.04
2022-12-03T17:28:33.688Z,4.07
2022-12-03T17:31:01.431Z,3.90
2022-12-03T17:33:29.138Z,4.01
2022-12-03T17:35:56.797Z,4.13
2022-12-03T17:38:25.706Z,4.09
2022-12-03T17:40:53.294Z,3.77
2022-12-03T17:43:20.917Z,4.04
2022-12-03T17:45:48.556Z,4.07
2022-12-03T17:48:16.837Z,3.92
2022-12-03T17:50:44.444Z,4.08
2022-12-03T17:53:12.408Z,4.22
2022-12-03T17:55:45.020Z,4.22
2022-12-03T17:58:13.322Z,4.05
2022-12-03T18:00:41.198Z,3.91
2022-12-03T18:03:09.244Z,4.00
2022-12-03T18:05:37.029Z,3.82
2022-12-03T18:08:04.937Z,4.01
2022-12-03T18:10:32.649Z,3.65
2022-12-03T18:13:02.340Z,3.82
2022-12-03T18:15:30.770Z,3.74
2022-12-03T18:17:58.414Z,3.93
2022-12-03T18:20:26.043Z,3.88
2022-12-03T18:22:53.741Z,3.79
2022-12-03T18:25:21.408Z,3.81
2022-12-03T18:27:49.082Z,3.92
2022-12-03T18:30:18.572Z,4.05
2022-12-03T18:32:46.194Z,4.06
2022-12-03T18:35:13.895Z,4.09
2022-12-03T18:37:41.624Z,4.07
2022-12-03T18:40:17.647Z,4.01
2022-12-03T18:42:45.650Z,3.90
2022-12-03T18:45:14.831Z,3.99
2022-12-03T18:47:44.025Z,3.77
2022-12-03T18:50:13.201Z,3.77
2022-12-03T18:52:41.357Z,3.70
2022-12-03T18:55:12.475Z,3.57
2022-12-03T18:57:40.110Z,3.70
2022-12-03T19:00:13.407Z,3.78
2022-12-03T19:05:31.479Z,3.58
2022-12-03T19:07:59.193Z,3.58
2022-12-03T19:10:27.137Z,3.65
2022-12-03T19:12:54.793Z,3.70
2022-12-03T19:15:22.809Z,3.78
2022-12-03T19:17:50.946Z,3.73
2022-12-03T19:20:18.772Z,3.80
2022-12-03T19:22:47.723Z,3.78
2022-12-03T19:25:15.528Z,3.78
2022-12-03T19:27:43.158Z,3.78
2022-12-03T19:30:12.040Z,3.74
2022-12-03T19:32:39.741Z,3.63
2022-12-03T19:35:10.983Z,3.65
2022-12-03T19:37:38.638Z,2.96
2022-12-03T19:40:10.507Z,3.63
2022-12-03T19:42:38.207Z,3.71
2022-12-03T19:45:06.858Z,3.57
2022-12-03T19:47:34.850Z,3.56
2022-12-03T19:50:02.705Z,3.45
2022-12-03T19:52:30.418Z,3.52
2022-12-03T19:54:58.072Z,3.48
2022-12-03T19:57:27.072Z,3.40
2022-12-03T19:59:55.067Z,3.21
2022-12-03T20:02:23.151Z,3.37
2022-12-03T20:04:51.100Z,3.39
2022-12-03T20:07:18.721Z,3.40
2022-12-03T20:09:46.365Z,3.42
2022-12-03T20:12:14.196Z,3.51
2022-12-03T20:14:43.195Z,3.49
2022-12-03T20:17:11.126Z,3.32
2022-12-03T20:19:38.718Z,3.40
2022-12-03T20:22:06.351Z,3.37
2022-12-03T20:24:34.047Z,3.36
2022-12-03T20:27:01.651Z,3.29
2022-12-03T20:29:29.338Z,3.24
2022-12-03T20:31:59.811Z,3.28
2022-12-03T20:34:27.560Z,3.35
2022-12-03T20:36:55.173Z,3.38
2022-12-03T20:39:22.901Z,3.45
2022-12-03T20:41:50.510Z,3.58
2022-12-03T20:44:18.155Z,3.55
2022-12-03T20:46:45.807Z,3.49
2022-12-03T20:49:14.768Z,3.30
2022-12-03T20:51:42.829Z,3.28
2022-12-03T20:54:10.890Z,3.32
2022-12-03T20:56:41.885Z,3.34
2022-12-03T20:59:12.939Z,3.30
2022-12-03T21:01:41.224Z,3.25
2022-12-03T21:04:28.816Z,3.38
2022-12-03T21:07:16.734Z,3.42
2022-12-03T21:10:04.907Z,3.34
2022-12-03T21:12:52.848Z,2.98
2022-12-03T21:15:40.852Z,3.22
2022-12-03T21:18:28.791Z,3.16
2022-12-03T21:21:19.608Z,3.19
2022-12-03T21:24:08.155Z,3.17
2022-12-03T21:26:56.284Z,3.07
2022-12-03T21:29:44.195Z,3.01
2022-12-03T21:32:32.132Z,2.98
2022-12-03T21:35:20.140Z,3.07
2022-12-03T21:38:09.361Z,3.12
2022-12-03T21:40:58.290Z,3.18
2022-12-03T21:43:46.210Z,3.13
2022-12-03T21:47:09.618Z,3.12
2022-12-03T21:49:42.718Z,3.08
2022-12-03T21:52:30.622Z,3.18
2022-12-03T21:55:20.220Z,3.00
2022-12-03T21:58:08.523Z,3.01
2022-12-03T22:00:56.504Z,2.99
2022-12-03T22:03:44.833Z,2.97
2022-12-03T22:06:32.729Z,3.06
2022-12-03T22:09:26.294Z,2.92
2022-12-03T22:12:16.013Z,2.92
2022-12-03T22:15:04.469Z,2.88
2022-12-03T22:17:52.390Z,3.03
2022-12-03T22:20:42.586Z,3.20
2022-12-03T22:23:30.922Z,3.09
2022-12-03T22:26:20.038Z,3.05
2022-12-03T22:29:11.514Z,2.83
2022-12-03T22:31:59.773Z,2.96
2022-12-03T22:34:47.709Z,2.87
2022-12-03T22:37:35.703Z,2.97
2022-12-03T22:40:23.607Z,2.79
2022-12-03T22:43:11.472Z,2.84
2022-12-03T22:46:00.962Z,2.73
2022-12-03T22:48:48.911Z,2.90
2022-12-03T22:51:37.045Z,2.90
2022-12-03T22:54:24.978Z,2.99
2022-12-03T22:57:12.954Z,2.46
2022-12-03T23:00:00.832Z,3.08
2022-12-03T23:02:51.865Z,3.06
2022-12-03T23:05:40.757Z,2.96
2022-12-03T23:08:28.684Z,2.28
2022-12-03T23:11:17.260Z,2.42
2022-12-03T23:14:05.267Z,2.79
2022-12-03T23:16:53.182Z,2.91
2022-12-03T23:19:42.403Z,2.80
2022-12-03T23:22:30.329Z,2.79
2022-12-03T23:25:19.087Z,2.85
2022-12-03T23:28:07.545Z,2.85
2022-12-03T23:30:55.615Z,2.86
2022-12-03T23:33:43.628Z,2.92
2022-12-03T23:36:34.280Z,2.80
2022-12-03T23:39:22.190Z,2.78
2022-12-03T23:42:10.342Z,2.76
2022-12-03T23:44:58.297Z,2.70
2022-12-03T23:47:46.219Z,2.65
2022-12-03T23:50:34.830Z,2.66
2022-12-03T23:53:24.572Z,2.77
2022-12-03T23:56:14.951Z,2.91
2022-12-03T23:59:02.877Z,2.83
